Time;durP1;ratioP1;P1;durP2;ratioP2;P2;SDS_P1;SDS_P2;PMS_P1;PMS_P2;Temp;Humidity;BMP_temperature;BMP_pressure;BME280_temperature;BME280_humidity;BME280_pressure;Samples;Min_cycle;Max_cycle;Signal;HPM_P1;HPM_P2
2022/12/10 00:01:44;;;;;;;50.55;22.95;;;;;;;-3.14;100.00;100718.59;5048638;28;20411;-58
2022/12/10 00:04:14;;;;;;;52.00;23.70;;;;;;;-3.12;100.00;100724.56;5049356;28;20388;-57
2022/12/10 00:06:43;;;;;;;47.22;22.60;;;;;;;-3.18;100.00;100722.91;5049664;28;20123;-57
2022/12/10 00:09:14;;;;;;;50.97;22.58;;;;;;;-3.18;100.00;100722.06;5048872;28;20519;-56
2022/12/10 00:11:43;;;;;;;52.17;21.65;;;;;;;-3.24;100.00;100718.69;5049449;28;20048;-57
2022/12/10 00:14:13;;;;;;;44.53;21.77;;;;;;;-3.26;100.00;100724.72;5052005;28;20061;-57
2022/12/10 00:16:41;;;;;;;50.88;22.98;;;;;;;-3.30;100.00;100723.03;5048291;28;20227;-57
2022/12/10 00:19:10;;;;;;;52.17;23.08;;;;;;;-3.31;100.00;100721.34;5049344;28;20114;-57
2022/12/10 00:21:39;;;;;;;49.60;22.40;;;;;;;-3.32;100.00;100717.91;5048944;28;20525;-57
2022/12/10 00:24:08;;;;;;;49.80;22.70;;;;;;;-3.31;100.00;100717.06;5048854;28;20079;-57
2022/12/10 00:26:38;;;;;;;47.33;22.13;;;;;;;-3.29;100.00;100724.75;5048537;28;20052;-57
2022/12/10 00:29:08;;;;;;;55.10;23.77;;;;;;;-3.36;100.00;100726.53;5047677;28;20063;-57
2022/12/10 00:31:38;;;;;;;52.00;22.52;;;;;;;-3.34;100.00;100732.53;5047579;28;20055;-57
2022/12/10 00:34:09;;;;;;;49.45;21.75;;;;;;;-3.30;100.00;100718.78;5049230;28;20053;-57
2022/12/10 00:36:41;;;;;;;52.50;21.05;;;;;;;-3.28;100.00;100727.31;5048859;28;20451;-57
2022/12/10 00:39:12;;;;;;;53.60;21.95;;;;;;;-3.29;100.00;100720.44;5051499;28;20049;-57
2022/12/10 00:41:40;;;;;;;46.53;21.88;;;;;;;-3.28;100.00;100722.16;5048985;28;20531;-57
2022/12/10 00:44:09;;;;;;;49.20;20.92;;;;;;;-3.29;100.00;100720.44;5050663;28;20048;-57
2022/12/10 00:46:37;;;;;;;48.88;21.30;;;;;;;-3.28;100.00;100716.19;5052537;28;20067;-57
2022/12/10 00:49:05;;;;;;;54.20;20.80;;;;;;;-3.28;100.00;100724.75;5052487;28;20381;-57
2022/12/10 00:51:33;;;;;;;45.67;21.38;;;;;;;-3.30;100.00;100734.19;5052494;28;20041;-56
2022/12/10 00:54:03;;;;;;;45.72;21.60;;;;;;;-3.31;100.00;100724.78;5054151;28;20052;-57
2022/12/10 00:56:33;;;;;;;51.78;24.00;;;;;;;-3.34;100.00;100722.25;5056096;28;20576;-57
2022/12/10 00:59:02;;;;;;;48.78;21.33;;;;;;;-3.29;100.00;100729.91;5055153;28;20067;-57
2022/12/10 01:01:32;;;;;;;47.05;21.63;;;;;;;-3.28;100.00;100729.03;5055969;28;20408;-57
2022/12/10 01:04:02;;;;;;;50.67;21.10;;;;;;;-3.30;100.00;100728.19;5055629;28;20053;-57
2022/12/10 01:06:33;;;;;;;46.85;21.85;;;;;;;-3.32;100.00;100735.91;5055921;28;20051;-57
2022/12/10 01:09:05;;;;;;;49.90;21.13;;;;;;;-3.36;100.00;100730.84;5053660;28;20057;-57
2022/12/10 01:11:36;;;;;;;49.70;21.83;;;;;;;-3.37;100.00;100741.97;5051764;28;20139;-57
2022/12/10 01:14:06;;;;;;;50.08;22.40;;;;;;;-3.31;100.00;100742.78;5056014;28;20052;-57
2022/12/10 01:16:34;;;;;;;48.25;21.38;;;;;;;-3.34;100.00;100740.25;5056126;28;20040;-58
2022/12/10 01:19:03;;;;;;;52.13;23.80;;;;;;;-3.37;100.00;100739.41;5055749;28;20052;-57
2022/12/10 01:21:31;;;;;;;48.20;22.02;;;;;;;-3.27;100.00;100741.03;5055736;28;20072;-57
2022/12/10 01:24:04;;;;;;;47.38;22.30;;;;;;;-3.33;100.00;100753.94;5052489;28;20084;-58
2022/12/10 01:26:34;;;;;;;46.08;20.13;;;;;;;-3.32;100.00;100751.34;5051193;28;20040;-58
2022/12/10 01:29:04;;;;;;;48.55;22.60;;;;;;;-3.38;100.00;100750.56;5051378;28;20376;-58
2022/12/10 01:31:35;;;;;;;49.53;20.98;;;;;;;-3.43;100.00;100750.63;5050592;28;20120;-58
2022/12/10 01:34:05;;;;;;;46.50;21.65;;;;;;;-3.41;100.00;100748.88;5052149;28;20049;-57
2022/12/10 01:36:35;;;;;;;45.03;19.75;;;;;;;-3.40;100.00;100753.16;5051299;28;20128;-59
2022/12/10 01:39:07;;;;;;;48.65;21.23;;;;;;;-3.48;100.00;100749.78;5051871;28;20499;-56
2022/12/10 01:41:37;;;;;;;45.45;19.70;;;;;;;-3.45;100.00;100747.19;5051298;28;20101;-55
2022/12/10 01:44:44;;;;;;;47.88;20.92;;;;;;;-3.48;100.00;100748.06;5052165;28;20059;-57
2022/12/10 01:47:12;;;;;;;46.00;21.02;;;;;;;-3.47;100.00;100751.50;5051386;28;20049;-56
2022/12/10 01:49:43;;;;;;;47.58;21.80;;;;;;;-3.51;100.00;100758.38;5052462;28;20045;-57
2022/12/10 01:52:12;;;;;;;47.83;20.85;;;;;;;-3.51;100.00;100757.53;5053099;28;20043;-57
2022/12/10 01:54:45;;;;;;;48.25;20.42;;;;;;;-3.49;100.00;100756.66;5051352;28;20380;-56
2022/12/10 01:57:16;;;;;;;45.17;22.17;;;;;;;-3.52;100.00;100758.41;5051238;28;20563;-56
2022/12/10 01:59:47;;;;;;;44.53;20.95;;;;;;;-3.60;100.00;100751.59;5050254;28;20065;-57
2022/12/10 02:02:23;;;;;;;49.05;21.85;;;;;;;-3.66;100.00;100759.34;5049791;28;20098;-57
2022/12/10 02:05:03;;;;;;;44.33;21.35;;;;;;;-3.59;100.00;100763.56;5050578;28;20184;-57
2022/12/10 02:07:44;;;;;;;47.28;21.60;;;;;;;-3.65;100.00;100757.66;5051009;28;20524;-57
2022/12/10 02:10:30;;;;;;;47.95;21.23;;;;;;;-3.66;100.00;100755.94;5054375;28;20056;-57
2022/12/10 02:13:06;;;;;;;45.38;19.75;;;;;;;-3.73;100.00;100757.69;5052237;28;20076;-56
2022/12/10 02:15:39;;;;;;;49.63;21.17;;;;;;;-3.77;100.00;100750.88;5050533;28;20045;-57
2022/12/10 02:18:12;;;;;;;46.33;20.38;;;;;;;-3.76;100.00;100750.03;5053652;28;20045;-57
2022/12/10 02:20:44;;;;;;;48.63;20.45;;;;;;;-3.73;100.00;100755.13;5054280;28;20051;-57
2022/12/10 02:23:17;;;;;;;49.42;21.40;;;;;;;-3.78;100.00;100756.88;5050443;28;20048;-56
2022/12/10 02:25:57;;;;;;;42.60;20.17;;;;;;;-3.83;100.00;100756.94;5050613;28;20045;-58
2022/12/10 02:28:35;;;;;;;46.47;20.13;;;;;;;-3.81;100.00;100762.06;5053296;28;20044;-57
2022/12/10 02:31:06;;;;;;;45.22;20.95;;;;;;;-3.78;100.00;100760.28;5054773;28;20056;-57
2022/12/10 02:33:40;;;;;;;47.53;20.25;;;;;;;-3.85;100.00;100760.38;5054073;28;20110;-56
2022/12/10 02:36:10;;;;;;;42.30;20.05;;;;;;;-3.79;100.00;100761.19;5052992;28;20061;-55
2022/12/10 02:38:42;;;;;;;49.83;21.83;;;;;;;-3.85;100.00;100762.94;5050178;28;20037;-56
2022/12/10 02:41:16;;;;;;;45.70;19.42;;;;;;;-3.77;100.00;100763.72;5051193;28;20045;-57
2022/12/10 02:43:47;;;;;;;46.72;19.15;;;;;;;-3.85;100.00;100757.78;5049615;28;20504;-57
2022/12/10 02:46:17;;;;;;;47.75;20.80;;;;;;;-3.80;100.00;100756.06;5049398;28;20045;-56
2022/12/10 02:48:47;;;;;;;45.15;20.98;;;;;;;-3.86;100.00;100762.06;5050882;28;20129;-57
2022/12/10 02:51:15;;;;;;;48.78;21.83;;;;;;;-3.91;100.00;100759.53;5050489;28;20045;-57
2022/12/10 02:53:44;;;;;;;47.70;20.08;;;;;;;-3.88;100.00;100755.25;5053560;28;20446;-57
2022/12/10 02:56:21;;;;;;;48.90;20.90;;;;;;;-3.90;100.00;100757.81;5053762;28;20361;-57
2022/12/10 02:59:04;;;;;;;57.08;23.17;;;;;;;-3.95;100.00;100760.41;5053765;28;20079;-57
2022/12/10 03:01:45;;;;;;;47.00;21.90;;;;;;;-3.97;100.00;100756.16;5053965;28;20048;-57
2022/12/10 03:04:19;;;;;;;50.33;20.40;;;;;;;-3.90;100.00;100768.09;5050343;28;20041;-58
2022/12/10 03:06:53;;;;;;;45.60;20.35;;;;;;;-4.00;100.00;100754.44;5050119;28;20404;-57
2022/12/10 03:09:27;;;;;;;44.33;20.17;;;;;;;-4.04;100.00;100752.75;5049425;28;20399;-57
2022/12/10 03:12:02;;;;;;;47.35;22.48;;;;;;;-4.09;100.00;100757.94;5052182;28;20107;-57
2022/12/10 03:14:33;;;;;;;47.38;21.65;;;;;;;-4.08;100.00;100758.78;5053008;28;20041;-56
2022/12/10 03:17:05;;;;;;;46.85;21.50;;;;;;;-4.11;100.00;100751.94;5053973;28;20690;-56
2022/12/10 03:19:37;;;;;;;49.28;20.90;;;;;;;-4.10;100.00;100755.38;5053623;28;20053;-56
2022/12/10 03:22:08;;;;;;;44.58;21.17;;;;;;;-4.11;100.00;100758.81;5052859;28;20048;-57
2022/12/10 03:24:37;;;;;;;44.17;21.42;;;;;;;-4.06;100.00;100746.81;5049896;28;20061;-56
2022/12/10 03:27:07;;;;;;;44.88;20.15;;;;;;;-4.11;100.00;100751.09;5050000;28;20051;-57
2022/12/10 03:29:39;;;;;;;;;;;;;;;-4.14;100.00;100751.13;5048405;28;20056;-56
2022/12/10 03:32:11;;;;;;;44.78;19.60;;;;;;;-4.15;100.00;100749.41;5048748;28;19920;-57
2022/12/10 03:34:40;;;;;;;47.05;20.83;;;;;;;-4.16;100.00;100752.84;5049414;28;20057;-56
2022/12/10 03:37:08;;;;;;;48.45;20.80;;;;;;;-4.16;100.00;100752.84;5051398;28;20055;-56
2022/12/10 03:39:37;;;;;;;48.50;21.48;;;;;;;-4.23;100.00;100756.31;5052992;28;20445;-56
2022/12/10 03:42:07;;;;;;;48.58;20.52;;;;;;;-4.20;100.00;100753.72;5049619;28;20519;-56
2022/12/10 03:44:36;;;;;;;44.90;19.63;;;;;;;-4.21;100.00;100749.44;5047543;28;20045;-47
2022/12/10 03:47:07;;;;;;;46.55;20.20;;;;;;;-4.19;100.00;100750.31;5050737;28;20041;-46
2022/12/10 03:49:37;;;;;;;46.22;20.90;;;;;;;-4.15;100.00;100757.13;5050398;28;20052;-49
2022/12/10 03:52:06;;;;;;;45.97;21.55;;;;;;;-4.23;100.00;100748.63;5049110;28;20056;-48
2022/12/10 03:54:34;;;;;;;45.38;20.55;;;;;;;-4.21;100.00;100754.56;5052305;28;20053;-57
2022/12/10 03:57:02;;;;;;;47.15;21.83;;;;;;;-4.22;100.00;100751.16;5049775;28;20503;-57
2022/12/10 03:59:30;;;;;;;51.05;22.15;;;;;;;-4.25;100.00;100748.63;5047491;28;20040;-56
2022/12/10 04:01:59;;;;;;;47.60;21.02;;;;;;;-4.23;100.00;100753.75;5049138;28;20086;-55
2022/12/10 04:04:27;;;;;;;46.97;20.65;;;;;;;-4.25;100.00;100749.47;5049158;28;20037;-57
2022/12/10 04:06:56;;;;;;;48.58;21.63;;;;;;;-4.25;100.00;100754.59;5049377;28;20049;-56
2022/12/10 04:09:25;;;;;;;51.45;21.75;;;;;;;-4.30;100.00;100758.91;5052794;28;20045;-57
2022/12/10 04:11:56;;;;;;;50.83;21.33;;;;;;;-4.21;100.00;100758.03;5052506;28;20102;-57
2022/12/10 04:17:11;;;;;;;42.72;21.75;;;;;;;-4.25;100.00;100762.31;5048635;28;20053;-57
2022/12/10 04:19:39;;;;;;;49.10;21.45;;;;;;;-4.23;100.00;100761.44;5048900;28;20056;-57
2022/12/10 04:27:41;;;;;;;45.67;21.80;;;;;;;-4.26;100.00;100767.47;5047531;28;20068;-57
2022/12/10 04:30:12;;;;;;;46.38;20.33;;;;;;;-4.36;100.00;100771.78;5048940;28;20045;-57
2022/12/10 04:32:40;;;;;;;49.42;20.50;;;;;;;-4.23;100.00;100767.44;5052496;28;20425;-56
2022/12/10 04:35:10;;;;;;;47.03;22.13;;;;;;;-4.26;100.00;100765.72;5052266;28;20072;-57
2022/12/10 04:37:39;;;;;;;55.00;22.67;;;;;;;-4.30;100.00;100758.91;5049302;28;20503;-57
2022/12/10 04:40:08;;;;;;;48.05;21.92;;;;;;;-4.32;100.00;100764.91;5048518;28;20515;-57
2022/12/10 04:42:37;;;;;;;46.60;21.90;;;;;;;-4.28;100.00;100762.34;5048563;28;20056;-57
2022/12/10 04:45:06;;;;;;;47.60;22.23;;;;;;;-4.32;100.00;100762.34;5049267;28;20053;-57
2022/12/10 04:47:35;;;;;;;48.30;21.73;;;;;;;-4.25;100.00;100764.03;5052048;28;20500;-57
2022/12/10 04:50:04;;;;;;;48.97;22.35;;;;;;;-4.25;100.00;100772.56;5052722;28;20075;-58
2022/12/10 04:52:32;;;;;;;49.65;22.77;;;;;;;-4.21;100.00;100772.56;5052208;28;20436;-56
2022/12/10 04:55:02;;;;;;;54.55;22.38;;;;;;;-4.22;100.00;100770.88;5052357;28;20059;-56
2022/12/10 04:57:30;;;;;;;48.65;23.38;;;;;;;-4.21;100.00;100776.00;5050672;28;20045;-56
2022/12/10 04:59:58;;;;;;;46.00;22.02;;;;;;;-4.19;100.00;100778.56;5047295;28;20273;-56
2022/12/10 05:02:26;;;;;;;54.15;24.42;;;;;;;-4.15;100.00;100782.81;5049918;28;20061;-56
2022/12/10 05:04:54;;;;;;;63.33;25.92;;;;;;;-4.11;100.00;100790.47;5049243;28;20041;-56
2022/12/10 05:07:22;;;;;;;62.85;26.25;;;;;;;-4.05;100.00;100783.59;5048412;28;20076;-57
2022/12/10 05:09:50;;;;;;;57.95;24.42;;;;;;;-4.01;100.00;100785.31;5050909;28;20049;-57
2022/12/10 05:12:20;;;;;;;59.88;26.17;;;;;;;-3.99;100.00;100778.44;5048002;28;20072;-56
2022/12/10 05:14:48;;;;;;;68.18;27.67;;;;;;;-3.91;100.00;100792.94;5047034;28;20049;-57
2022/12/10 05:17:16;;;;;;;67.30;26.45;;;;;;;-3.86;100.00;100784.34;5047378;28;20045;-56
2022/12/10 05:19:45;;;;;;;62.92;25.98;;;;;;;-3.85;100.00;100786.91;5048730;28;20073;-56
2022/12/10 05:24:58;;;;;;;71.25;29.02;;;;;;;-3.75;100.00;100783.44;5050290;28;20347;-56
2022/12/10 05:27:32;;;;;;;74.97;30.10;;;;;;;-3.70;100.00;100780.81;5048211;28;20053;-56
2022/12/10 05:30:00;;;;;;;77.53;29.80;;;;;;;-3.66;100.00;100785.06;5050195;28;20056;-56
2022/12/10 05:32:28;;;;;;;73.55;29.55;;;;;;;-3.64;100.00;100785.91;5050975;28;20048;-57
2022/12/10 05:34:56;;;;;;;78.32;29.77;;;;;;;-3.59;100.00;100783.31;5048183;28;20067;-56
2022/12/10 05:37:24;;;;;;;79.38;29.02;;;;;;;-3.53;100.00;100787.53;5050148;28;20052;-56
2022/12/10 05:39:53;;;;;;;78.97;31.13;;;;;;;-3.47;100.00;100788.34;5053711;28;20060;-56
2022/12/10 05:42:21;;;;;;;74.38;29.63;;;;;;;-3.41;100.00;100785.75;5052515;28;20041;-57
2022/12/10 05:44:50;;;;;;;80.85;32.00;;;;;;;-3.34;100.00;100783.97;5050438;28;20675;-57
2022/12/10 05:47:18;;;;;;;76.85;30.30;;;;;;;-3.29;100.00;100782.19;5050523;28;20049;-57
2022/12/10 05:49:47;;;;;;;80.90;30.67;;;;;;;-3.34;100.00;100783.97;5053317;28;20049;-56
2022/12/10 05:52:19;;;;;;;78.55;31.23;;;;;;;-3.31;100.00;100783.94;5056035;28;20043;-55
2022/12/10 05:54:48;;;;;;;84.15;28.80;;;;;;;-3.29;100.00;100782.19;5054871;28;20052;-56
2022/12/10 05:57:16;;;;;;;80.85;31.23;;;;;;;-3.25;100.00;100777.88;5050786;28;20131;-56
2022/12/10 05:59:44;;;;;;;82.43;30.05;;;;;;;-3.21;100.00;100779.56;5051098;28;20090;-57
2022/12/10 06:02:15;;;;;;;93.22;33.63;;;;;;;-3.16;100.00;100782.06;5054064;28;20098;-55
2022/12/10 06:04:43;;;;;;;81.43;29.48;;;;;;;-3.10;100.00;100785.44;5052443;28;20053;-56
2022/12/10 06:07:11;;;;;;;86.80;33.00;;;;;;;-3.09;100.00;100781.16;5053636;28;20045;-56
2022/12/10 06:09:40;;;;;;;84.25;30.60;;;;;;;-3.06;100.00;100783.72;5054933;28;20055;-56
2022/12/10 06:12:09;;;;;;;77.50;30.50;;;;;;;-3.04;100.00;100784.56;5055219;28;20053;-56
2022/12/10 06:14:37;;;;;;;72.65;29.45;;;;;;;-3.05;100.00;100782.84;5050724;28;20112;-56
2022/12/10 06:17:06;;;;;;;82.13;29.95;;;;;;;-3.10;100.00;100787.19;5052565;28;20044;-57
2022/12/10 06:19:36;;;;;;;82.82;31.40;;;;;;;-3.11;100.00;100780.31;5052429;28;20119;-56
2022/12/10 06:22:04;;;;;;;79.05;30.45;;;;;;;-3.12;100.00;100773.47;5052125;28;20060;-56
2022/12/10 06:24:33;;;;;;;80.53;30.58;;;;;;;-3.09;100.00;100778.59;5055022;28;20139;-56
2022/12/10 06:27:01;;;;;;;81.13;31.30;;;;;;;-3.07;100.00;100780.28;5051498;28;20502;-56
2022/12/10 06:29:29;;;;;;;76.90;30.05;;;;;;;-3.07;100.00;100782.00;5050669;28;20052;-56
2022/12/10 06:31:58;;;;;;;89.15;33.00;;;;;;;-3.00;100.00;100781.09;5054425;28;20136;-57
2022/12/10 06:34:26;;;;;;;84.60;31.45;;;;;;;-2.94;100.00;100786.16;5054144;28;20130;-57
2022/12/10 06:36:56;;;;;;;86.03;31.42;;;;;;;-2.94;100.00;100787.88;5051132;28;20061;-56
2022/12/10 06:39:24;;;;;;;77.25;29.95;;;;;;;-2.94;100.00;100793.03;5050367;28;20115;-56
2022/12/10 06:41:52;;;;;;;76.05;28.17;;;;;;;-2.98;100.00;100794.78;5049725;28;20040;-56
2022/12/10 06:44:26;;;;;;;89.22;32.53;;;;;;;-3.00;100.00;100801.69;5048534;28;20419;-56
2022/12/10 06:46:54;;;;;;;84.40;30.88;;;;;;;-3.04;100.00;100801.69;5052747;28;20139;-56
2022/12/10 06:49:22;;;;;;;82.25;30.75;;;;;;;-3.04;100.00;100805.16;5050441;28;20048;-56
2022/12/10 06:51:50;;;;;;;85.28;31.20;;;;;;;-2.97;100.00;100809.34;5050600;28;20404;-56
2022/12/10 06:54:20;;;;;;;80.07;31.98;;;;;;;-2.91;100.00;100804.13;5050849;28;20095;-57
2022/12/10 06:56:48;;;;;;;78.03;30.70;;;;;;;-2.88;100.00;100813.53;5052254;28;20052;-57
2022/12/10 06:59:17;;;;;;;76.00;29.00;;;;;;;-2.89;100.00;100824.72;5048876;28;20061;-56
2022/12/10 07:01:45;;;;;;;75.15;28.55;;;;;;;-2.92;100.00;100817.91;5050058;28;20056;-57
2022/12/10 07:04:13;;;;;;;79.10;28.45;;;;;;;-2.95;100.00;100825.63;5050851;28;20077;-56
2022/12/10 07:06:41;;;;;;;79.50;28.15;;;;;;;-2.91;100.00;100814.44;5052479;28;20051;-57
2022/12/10 07:09:10;;;;;;;67.40;27.50;;;;;;;-2.90;100.00;100823.88;5050444;28;20440;-57
2022/12/10 07:11:40;;;;;;;75.22;27.75;;;;;;;-2.95;100.00;100833.34;5052748;28;20471;-56
2022/12/10 07:14:08;;;;;;;80.53;27.55;;;;;;;-2.96;100.00;100829.09;5053749;28;20070;-56
2022/12/10 07:16:39;;;;;;;73.82;28.50;;;;;;;-2.87;100.00;100837.59;5049076;28;20051;-56
2022/12/10 07:19:09;;;;;;;75.15;28.30;;;;;;;-2.78;100.00;100834.91;5050874;28;20093;-56
2022/12/10 07:21:41;;;;;;;71.05;29.48;;;;;;;-2.83;100.00;100837.53;5052813;28;20098;-57
2022/12/10 07:24:13;;;;;;;74.77;29.20;;;;;;;-2.83;100.00;100841.84;5053555;28;20047;-57
2022/12/10 07:26:45;;;;;;;70.53;29.02;;;;;;;-2.74;100.00;100834.88;5050011;28;20198;-57
2022/12/10 07:29:16;;;;;;;80.53;28.63;;;;;;;-2.67;100.00;100834.78;5048744;28;20049;-57
2022/12/10 07:31:45;;;;;;;73.03;28.23;;;;;;;-2.68;100.00;100843.41;5053053;28;20048;-57
2022/12/10 07:34:14;;;;;;;71.38;27.70;;;;;;;-2.74;100.00;100846.88;5053033;28;20412;-56
2022/12/10 07:36:42;;;;;;;71.85;30.45;;;;;;;-2.74;100.00;100854.59;5053212;28;20041;-57
2022/12/10 07:39:16;;;;;;;80.22;28.40;;;;;;;-2.72;100.00;100860.59;5052993;28;20053;-57
2022/12/10 07:41:49;;;;;;;70.65;29.52;;;;;;;-2.74;100.00;100858.03;5049718;28;20094;-57
2022/12/10 07:44:20;;;;;;;82.40;28.67;;;;;;;-2.78;100.00;100871.81;5047826;28;20119;-57
2022/12/10 07:46:49;;;;;;;80.57;29.40;;;;;;;-2.75;100.00;100874.34;5048804;28;20072;-57
2022/12/10 07:49:18;;;;;;;83.00;29.30;;;;;;;-2.76;100.00;100864.91;5048927;28;20037;-57
2022/12/10 07:51:47;;;;;;;75.43;28.70;;;;;;;-2.81;100.00;100866.69;5049476;28;20111;-57
2022/12/10 07:54:15;;;;;;;74.07;28.38;;;;;;;-2.74;100.00;100877.78;5049042;28;20060;-57
2022/12/10 07:56:43;;;;;;;76.93;30.05;;;;;;;-2.72;100.00;100882.03;5049277;28;20802;-56
2022/12/10 07:59:13;;;;;;;71.45;27.15;;;;;;;-2.68;100.00;100872.56;5049463;28;20053;-56
2022/12/10 08:01:41;;;;;;;69.88;27.80;;;;;;;-2.67;100.00;100881.13;5049845;28;20488;-56
2022/12/10 08:04:09;;;;;;;69.40;26.33;;;;;;;-2.68;100.00;100875.16;5049578;28;20037;-56
2022/12/10 08:06:37;;;;;;;70.10;26.13;;;;;;;-2.69;100.00;100877.75;5052298;28;20098;-57
2022/12/10 08:09:06;;;;;;;65.72;25.05;;;;;;;-2.66;100.00;100875.97;5052023;28;20045;-56
2022/12/10 08:11:34;;;;;;;68.65;26.15;;;;;;;-2.74;100.00;100881.22;5048452;28;20538;-56
2022/12/10 08:14:02;;;;;;;65.97;25.33;;;;;;;-2.71;100.00;100885.50;5050444;28;20045;-56
2022/12/10 08:16:32;;;;;;;70.57;25.90;;;;;;;-2.71;100.00;100888.06;5052581;28;20463;-58
2022/12/10 08:19:01;;;;;;;69.97;25.58;;;;;;;-2.80;100.00;100891.56;5051943;28;20519;-57
2022/12/10 08:21:32;;;;;;;66.28;25.70;;;;;;;-2.70;100.00;100891.47;5051316;28;20500;-57
2022/12/10 08:24:01;;;;;;;65.38;25.67;;;;;;;-2.64;100.00;100891.44;5047515;28;20056;-56
2022/12/10 08:26:31;;;;;;;66.05;26.20;;;;;;;-2.59;100.00;100898.25;5050699;28;20056;-56
2022/12/10 08:29:00;;;;;;;65.25;25.10;;;;;;;-2.56;100.00;100898.19;5048194;28;20045;-56
2022/12/10 08:31:29;;;;;;;62.30;24.77;;;;;;;-2.47;100.00;100906.69;5047505;28;20049;-56
2022/12/10 08:34:11;;;;;;;66.40;26.80;;;;;;;-2.42;100.00;100904.94;5049748;28;20171;-57
2022/12/10 08:36:40;;;;;;;76.35;27.00;;;;;;;-2.33;100.00;100906.56;5052378;28;20045;-57
2022/12/10 08:39:10;;;;;;;70.78;26.70;;;;;;;-2.32;100.00;100908.28;5052658;28;20064;-47
2022/12/10 08:41:38;;;;;;;70.32;27.55;;;;;;;-2.35;100.00;100901.41;5052654;28;20045;-50
2022/12/10 08:44:06;;;;;;;65.15;25.40;;;;;;;-2.33;100.00;100912.59;5052349;28;20372;-51
2022/12/10 08:46:34;;;;;;;70.35;25.52;;;;;;;-2.34;100.00;100915.19;5052582;28;20124;-50
2022/12/10 08:49:02;;;;;;;75.85;28.52;;;;;;;-2.22;100.00;100910.72;5052273;28;20049;-50
2022/12/10 08:51:33;;;;;;;65.57;24.65;;;;;;;-2.18;100.00;100918.41;5052133;28;20145;-51
2022/12/10 08:54:01;;;;;;;65.75;25.33;;;;;;;-2.25;100.00;100907.31;5052209;28;20488;-50
2022/12/10 08:56:30;;;;;;;63.25;23.63;;;;;;;-2.21;100.00;100915.03;5052345;28;20495;-49
2022/12/10 08:58:59;;;;;;;74.78;27.70;;;;;;;-2.18;100.00;100918.41;5052129;28;20049;-51
2022/12/10 09:01:27;;;;;;;65.00;27.17;;;;;;;-2.15;100.00;100913.25;5052204;28;20072;-52
2022/12/10 09:03:55;;;;;;;72.75;28.10;;;;;;;-2.19;100.00;100914.16;5052392;28;20072;-50
2022/12/10 09:06:25;;;;;;;73.25;27.63;;;;;;;-2.11;100.00;100917.50;5052257;28;20056;-48
2022/12/10 09:08:55;;;;;;;73.30;25.80;;;;;;;-2.08;100.00;100914.88;5052238;28;20044;-51
2022/12/10 09:11:25;;;;;;;64.45;25.20;;;;;;;-2.09;100.00;100921.75;5052951;28;20102;-51
2022/12/10 09:13:54;;;;;;;68.50;25.05;;;;;;;-2.06;100.00;100920.84;5055682;28;20049;-50
2022/12/10 09:16:29;;;;;;;62.83;24.02;;;;;;;-2.02;100.00;100925.09;5055835;28;20041;-49
2022/12/10 09:18:57;;;;;;;64.53;24.45;;;;;;;-1.98;100.00;100923.34;5055963;28;20484;-50
2022/12/10 09:21:25;;;;;;;63.15;23.90;;;;;;;-1.96;100.00;100927.63;5056076;28;20043;-51
2022/12/10 09:23:55;;;;;;;62.15;23.02;;;;;;;-1.98;100.00;100931.09;5054173;28;20048;-57
2022/12/10 09:26:23;;;;;;;60.38;23.83;;;;;;;-1.98;100.00;100933.66;5051207;28;20057;-57
2022/12/10 09:28:52;;;;;;;64.70;24.73;;;;;;;-1.93;100.00;100937.06;5052772;28;20045;-57
2022/12/10 09:31:21;;;;;;;65.07;24.35;;;;;;;-1.90;100.00;100942.16;5055817;28;20045;-57
2022/12/10 09:33:51;;;;;;;62.30;24.23;;;;;;;-1.84;100.00;100936.94;5055270;28;20053;-57
2022/12/10 09:36:21;;;;;;;62.33;22.50;;;;;;;-1.81;100.00;100938.59;5055654;28;20057;-57
2022/12/10 09:38:51;;;;;;;60.40;23.33;;;;;;;-1.82;100.00;100939.50;5055780;28;20041;-58
2022/12/10 09:41:44;;;;;;;63.58;24.75;;;;;;;-1.91;100.00;100938.75;5054344;28;20451;-57
2022/12/10 09:44:22;;;;;;;60.72;22.63;;;;;;;-1.83;100.00;100941.22;5055311;28;20049;-56
2022/12/10 09:46:54;;;;;;;60.67;22.15;;;;;;;-1.75;100.00;100944.53;5055442;28;20123;-57
2022/12/10 09:49:34;;;;;;;64.63;24.13;;;;;;;-1.74;100.00;100945.41;5055327;28;20480;-57
2022/12/10 09:52:06;;;;;;;65.55;24.80;;;;;;;-1.70;100.00;100947.09;5055383;28;20079;-57
2022/12/10 09:54:39;;;;;;;67.23;24.47;;;;;;;-1.67;100.00;100943.63;5055318;28;20049;-57
2022/12/10 09:57:17;;;;;;;69.07;23.10;;;;;;;-1.67;100.00;100951.34;5052017;28;20139;-57
2022/12/10 09:59:50;;;;;;;64.05;22.75;;;;;;;-1.64;100.00;100948.72;5049650;28;20118;-57
2022/12/10 10:02:21;;;;;;;;;;;;;;;-1.64;100.00;100943.56;5051572;28;20103;-57
2022/12/10 10:04:51;;;;;;;61.10;23.60;;;;;;;-1.64;100.00;100947.00;5051992;28;19967;-57
2022/12/10 10:07:22;;;;;;;70.70;24.48;;;;;;;-1.71;100.00;100943.63;5050945;28;20098;-56
2022/12/10 10:09:54;;;;;;;69.85;25.48;;;;;;;-1.66;100.00;100948.75;5051444;28;20072;-57
2022/12/10 10:12:23;;;;;;;67.75;23.83;;;;;;;-1.59;100.00;100949.53;5052187;28;20476;-57
2022/12/10 10:14:51;;;;;;;66.68;25.02;;;;;;;-1.56;100.00;100949.47;5052380;28;20132;-57
2022/12/10 10:17:24;;;;;;;67.97;24.30;;;;;;;-1.51;100.00;100954.56;5050333;28;20053;-56
2022/12/10 10:19:59;;;;;;;68.25;25.02;;;;;;;-1.53;100.00;100954.59;5051482;28;20045;-56
2022/12/10 10:22:27;;;;;;;71.97;24.63;;;;;;;-1.52;100.00;100958.88;5051576;28;20056;-57
2022/12/10 10:24:55;;;;;;;67.13;24.08;;;;;;;-1.52;100.00;100951.16;5053309;28;20044;-56
2022/12/10 10:27:32;;;;;;;69.35;24.48;;;;;;;-1.49;100.00;100950.25;5053312;28;20558;-56
2022/12/10 10:30:03;;;;;;;74.40;25.63;;;;;;;-1.47;100.00;100953.66;5047247;28;20107;-56
2022/12/10 10:32:49;;;;;;;69.63;24.92;;;;;;;-1.44;100.00;100951.88;5050637;28;20056;-56
2022/12/10 10:35:27;;;;;;;73.97;27.15;;;;;;;-1.44;100.00;100956.22;5049451;28;20055;-56
2022/12/10 10:38:01;;;;;;;72.05;24.05;;;;;;;-1.41;100.00;100953.56;5053107;28;20154;-56
2022/12/10 10:40:33;;;;;;;74.03;25.65;;;;;;;-1.36;100.00;100959.53;5054081;28;20415;-56
2022/12/10 10:43:03;;;;;;;;;;;;;;;-1.37;100.00;100961.25;5049739;28;20052;-56
2022/12/10 10:45:42;;;;;;;81.88;27.85;;;;;;;-1.36;100.00;100957.78;5051369;28;19971;-55
2022/12/10 10:48:13;;;;;;;84.10;27.25;;;;;;;-1.28;100.00;100960.28;5054167;28;20044;-56
2022/12/10 10:50:44;;;;;;;80.82;26.92;;;;;;;-1.29;100.00;100949.97;5051239;28;20076;-56
2022/12/10 10:53:27;;;;;;;76.95;26.90;;;;;;;-1.23;100.00;100957.63;5049752;28;20076;-55
2022/12/10 10:55:57;;;;;;;;;;;;;;;-1.20;100.00;100955.84;5054624;28;20103;-56
2022/12/10 10:58:27;;;;;;;72.95;24.10;;;;;;;-1.21;100.00;100951.56;5053749;28;19921;-55
2022/12/10 11:01:01;;;;;;;82.53;26.08;;;;;;;-1.20;100.00;100958.44;5049936;28;20064;-56
2022/12/10 11:03:32;;;;;;;81.70;26.13;;;;;;;-1.17;100.00;100961.84;5050803;28;20114;-54
2022/12/10 11:06:00;;;;;;;92.80;27.80;;;;;;;-1.18;100.00;100965.31;5048880;28;20053;-55
2022/12/10 11:08:32;;;;;;;82.38;28.42;;;;;;;-1.25;100.00;100965.38;5050285;28;20045;-47
2022/12/10 11:11:04;;;;;;;80.97;27.77;;;;;;;-1.28;100.00;100959.41;5050342;28;20056;-55
2022/12/10 11:13:35;;;;;;;82.45;26.27;;;;;;;-1.23;100.00;100953.34;5049159;28;20087;-55
2022/12/10 11:16:13;;;;;;;83.07;27.40;;;;;;;-1.22;100.00;100955.00;5048532;28;20041;-55
2022/12/10 11:18:43;;;;;;;80.28;27.00;;;;;;;-1.12;100.00;100949.72;5050583;28;20079;-47
2022/12/10 11:21:21;;;;;;;86.70;27.73;;;;;;;-1.05;100.00;100941.88;5049891;28;20061;-48
2022/12/10 11:23:52;;;;;;;79.63;26.02;;;;;;;-1.05;100.00;100941.88;5050255;28;20057;-51
2022/12/10 11:26:34;;;;;;;71.03;25.98;;;;;;;-1.03;100.00;100944.44;5049288;28;20088;-52
2022/12/10 11:29:25;;;;;;;77.57;26.27;;;;;;;-1.06;100.00;100945.31;5048494;28;20048;-48